Time;durP1;ratioP1;P1;durP2;ratioP2;P2;SDS_P1;SDS_P2;PMS_P1;PMS_P2;Temp;Humidity;BMP_temperature;BMP_pressure;BME280_temperature;BME280_humidity;BME280_pressure;Samples;Min_cycle;Max_cycle;Signal;HPM_P1;HPM_P2
2021/03/01 00:00:49;;;;;;;10.88;6.63;;;9.20;99.90;;;;;;4988929;28;20027;-76
2021/03/01 00:03:15;;;;;;;10.43;6.57;;;9.10;99.90;;;;;;5008874;28;20029;-75
2021/03/01 00:05:40;;;;;;;11.75;6.97;;;9.00;99.90;;;;;;5003044;28;20033;-76
2021/03/01 00:08:07;;;;;;;10.82;6.75;;;8.90;99.90;;;;;;5005021;28;20046;-75
2021/03/01 00:10:32;;;;;;;10.15;7.95;;;8.90;99.90;;;;;;5000171;28;20094;-75
2021/03/01 00:12:58;;;;;;;9.75;7.07;;;8.80;99.90;;;;;;4993162;28;20457;-76
2021/03/01 00:15:25;;;;;;;16.52;8.40;;;8.80;99.90;;;;;;4976481;28;20019;-76
2021/03/01 00:17:51;;;;;;;7.60;6.28;;;8.80;99.90;;;;;;4993218;28;20034;-76
2021/03/01 00:20:20;;;;;;;10.90;7.03;;;8.70;99.90;;;;;;4987434;28;20018;-76
2021/03/01 00:22:46;;;;;;;10.50;7.32;;;8.60;99.90;;;;;;4978306;28;20045;-76
2021/03/01 00:25:13;;;;;;;11.85;6.60;;;8.60;99.90;;;;;;4984996;28;20405;-76
2021/03/01 00:27:40;;;;;;;10.77;6.57;;;8.50;99.90;;;;;;4990730;28;20033;-76
2021/03/01 00:30:10;;;;;;;10.23;7.22;;;8.50;99.90;;;;;;4992509;28;20049;-78
2021/03/01 00:32:37;;;;;;;10.77;7.10;;;8.50;99.90;;;;;;4984313;28;20416;-76
2021/03/01 00:35:08;;;;;;;10.68;6.57;;;8.60;99.90;;;;;;4988425;28;20100;-76
2021/03/01 00:37:34;;;;;;;10.63;6.68;;;8.60;99.90;;;;;;4986744;28;20030;-76
2021/03/01 00:40:00;;;;;;;7.95;6.65;;;8.60;99.90;;;;;;4990429;28;20457;-76
2021/03/01 00:42:26;;;;;;;8.65;6.07;;;8.60;99.90;;;;;;4981820;28;20025;-76
2021/03/01 00:44:51;;;;;;;9.85;6.95;;;8.60;99.90;;;;;;4984845;28;20120;-76
2021/03/01 00:47:18;;;;;;;10.02;6.97;;;8.70;99.90;;;;;;4989783;28;20514;-76
2021/03/01 00:49:44;;;;;;;14.02;7.55;;;8.80;99.90;;;;;;4991957;28;20033;-76
2021/03/01 00:52:11;;;;;;;16.92;8.45;;;8.80;99.90;;;;;;4984320;28;20026;-76
2021/03/01 00:54:37;;;;;;;10.18;7.13;;;8.70;99.90;;;;;;4984716;28;20026;-75
2021/03/01 00:57:04;;;;;;;11.93;6.43;;;8.80;99.90;;;;;;4986748;28;20031;-76
2021/03/01 00:59:30;;;;;;;7.10;5.70;;;8.70;99.90;;;;;;4989817;28;20031;-76
2021/03/01 01:02:11;;;;;;;8.25;6.55;;;8.70;99.90;;;;;;4980382;28;20018;-76
2021/03/01 01:04:37;;;;;;;8.23;6.40;;;8.50;99.90;;;;;;4981680;28;20052;-76
2021/03/01 01:07:03;;;;;;;11.15;6.80;;;8.50;99.90;;;;;;4987273;28;20033;-76
2021/03/01 01:09:29;;;;;;;8.68;6.47;;;8.40;99.90;;;;;;4988786;28;20026;-76
2021/03/01 01:11:55;;;;;;;9.77;6.40;;;8.40;99.90;;;;;;4980968;28;20027;-76
2021/03/01 01:14:21;;;;;;;11.65;7.22;;;8.30;99.90;;;;;;4978861;28;20070;-76
2021/03/01 01:16:47;;;;;;;11.43;7.05;;;8.30;99.90;;;;;;4978984;28;20034;-76
2021/03/01 01:19:13;;;;;;;7.63;6.43;;;8.30;99.90;;;;;;4988686;28;20030;-76
2021/03/01 01:21:39;;;;;;;9.90;6.28;;;8.30;99.90;;;;;;4983437;28;20058;-76
2021/03/01 01:24:05;;;;;;;8.65;6.85;;;8.40;99.90;;;;;;4976466;28;20054;-76
2021/03/01 01:26:31;;;;;;;8.95;7.07;;;8.40;99.90;;;;;;4982385;28;20034;-76
2021/03/01 01:28:57;;;;;;;11.40;8.05;;;8.30;99.90;;;;;;4981943;28;20044;-76
2021/03/01 01:31:23;;;;;;;11.52;6.68;;;8.40;99.90;;;;;;4984621;28;20150;-76
2021/03/01 01:33:49;;;;;;;11.85;7.80;;;8.30;99.90;;;;;;4980613;28;20030;-76
2021/03/01 01:36:15;;;;;;;12.32;7.43;;;8.10;99.90;;;;;;4980786;28;20026;-76
2021/03/01 01:38:42;;;;;;;8.63;6.88;;;8.10;99.90;;;;;;4978097;28;20038;-76
2021/03/01 01:41:08;;;;;;;8.30;7.10;;;8.00;99.90;;;;;;4979487;28;20026;-76
2021/03/01 01:43:34;;;;;;;8.90;6.20;;;7.90;99.90;;;;;;4975161;28;20046;-75
2021/03/01 01:46:03;;;;;;;13.05;6.65;;;7.80;99.90;;;;;;4980457;28;20030;-76
2021/03/01 01:48:29;;;;;;;11.02;6.95;;;7.70;99.90;;;;;;4973274;28;20034;-76
2021/03/01 01:50:55;;;;;;;11.23;6.78;;;7.70;99.90;;;;;;4977421;28;20079;-75
2021/03/01 01:53:20;;;;;;;12.73;6.82;;;7.60;99.90;;;;;;4981500;28;20022;-76
2021/03/01 01:55:46;;;;;;;9.73;7.22;;;7.60;99.90;;;;;;4990646;28;20389;-76
2021/03/01 01:58:12;;;;;;;9.68;7.15;;;7.50;99.90;;;;;;4989655;28;20470;-76
2021/03/01 02:00:45;;;;;;;12.07;6.78;;;7.40;99.90;;;;;;4978556;28;20025;-76
2021/03/01 02:03:32;;;;;;;9.55;6.85;;;7.40;99.90;;;;;;4983107;28;20074;-75
2021/03/01 02:06:16;;;;;;;10.95;7.88;;;7.30;99.90;;;;;;4982790;28;20027;-76
2021/03/01 02:08:51;;;;;;;7.10;5.95;;;7.20;99.90;;;;;;4982527;28;20038;-76
2021/03/01 02:11:39;;;;;;;9.68;6.55;;;7.30;99.90;;;;;;4981767;28;20022;-76
2021/03/01 02:14:14;;;;;;;9.35;6.82;;;7.30;99.90;;;;;;4979662;28;20102;-76
2021/03/01 02:16:40;;;;;;;12.73;7.13;;;7.10;99.90;;;;;;4978384;28;20401;-75
2021/03/01 02:19:07;;;;;;;8.10;6.35;;;7.10;99.90;;;;;;4983181;28;20098;-76
2021/03/01 02:21:46;;;;;;;10.20;6.82;;;7.00;99.90;;;;;;4984918;28;20024;-78
2021/03/01 02:24:15;;;;;;;8.95;7.45;;;7.00;99.90;;;;;;4990014;28;20030;-76
2021/03/01 02:26:46;;;;;;;12.65;7.53;;;7.00;99.90;;;;;;4984665;28;20080;-76
2021/03/01 02:29:15;;;;;;;10.23;7.07;;;7.00;99.90;;;;;;4982231;28;20026;-76
2021/03/01 02:31:45;;;;;;;10.55;7.68;;;7.20;99.90;;;;;;4982334;28;20477;-76
2021/03/01 02:34:15;;;;;;;12.93;6.97;;;7.20;99.90;;;;;;4978131;28;20061;-75
2021/03/01 02:36:48;;;;;;;10.15;7.35;;;7.10;99.90;;;;;;4982626;28;20027;-76
2021/03/01 02:39:17;;;;;;;7.70;6.57;;;7.10;99.90;;;;;;4981432;28;20042;-76
2021/03/01 02:41:45;;;;;;;11.27;7.55;;;7.10;99.90;;;;;;4998871;28;20034;-76
2021/03/01 02:44:11;;;;;;;13.88;6.50;;;7.30;99.90;;;;;;4986396;28;20090;-76
2021/03/01 02:46:37;;;;;;;9.90;7.35;;;7.20;99.90;;;;;;4976161;28;20019;-75
2021/03/01 02:49:08;;;;;;;8.95;7.45;;;7.40;99.90;;;;;;4986013;28;20720;-76
2021/03/01 02:51:36;;;;;;;13.00;7.18;;;7.50;99.90;;;;;;4982390;28;20058;-76
2021/03/01 02:54:03;;;;;;;10.20;6.93;;;7.50;99.90;;;;;;4984229;28;20041;-76
2021/03/01 02:56:30;;;;;;;8.95;6.28;;;7.40;99.90;;;;;;4987109;28;20030;-76
2021/03/01 02:58:58;;;;;;;7.40;5.78;;;7.20;99.90;;;;;;4994011;28;20054;-76
2021/03/01 03:01:25;;;;;;;12.15;6.75;;;7.10;99.90;;;;;;4985804;28;20600;-75
2021/03/01 03:03:52;;;;;;;11.75;6.97;;;7.10;99.90;;;;;;4982565;28;20055;-76
2021/03/01 03:06:21;;;;;;;9.68;6.50;;;7.00;99.90;;;;;;4982672;28;20069;-76
2021/03/01 03:08:49;;;;;;;11.13;7.28;;;7.00;99.90;;;;;;4987318;28;20018;-75
2021/03/01 03:11:19;;;;;;;10.40;7.97;;;7.10;99.90;;;;;;4990249;28;20026;-76
2021/03/01 03:13:47;;;;;;;10.98;7.28;;;7.10;99.90;;;;;;4983729;28;20397;-76
2021/03/01 03:16:16;;;;;;;11.38;7.45;;;7.10;99.90;;;;;;4969930;28;20558;-76
2021/03/01 03:18:43;;;;;;;9.00;6.72;;;7.20;99.90;;;;;;4992531;28;20034;-76
2021/03/01 03:21:10;;;;;;;6.63;5.93;;;7.20;99.90;;;;;;4989966;28;20038;-76
2021/03/01 03:23:35;;;;;;;8.75;6.03;;;7.30;99.90;;;;;;4980121;28;20031;-75
2021/03/01 03:26:01;;;;;;;7.43;6.22;;;7.30;99.90;;;;;;4986119;28;20034;-76
2021/03/01 03:28:27;;;;;;;10.85;6.70;;;7.30;99.90;;;;;;4979771;28;20034;-75
2021/03/01 03:30:53;;;;;;;8.50;6.55;;;7.40;99.90;;;;;;4982697;28;20035;-76
2021/03/01 03:33:19;;;;;;;7.03;5.85;;;7.30;99.90;;;;;;4981541;28;20037;-76
2021/03/01 03:35:46;;;;;;;8.98;5.70;;;7.40;99.90;;;;;;4981742;28;20557;-76
2021/03/01 03:38:22;;;;;;;7.93;5.38;;;7.30;99.90;;;;;;4987455;28;20035;-76
2021/03/01 03:40:50;;;;;;;7.88;6.15;;;7.30;99.90;;;;;;4984899;28;20054;-76
2021/03/01 03:43:17;;;;;;;9.45;5.40;;;7.30;99.90;;;;;;4993826;28;20173;-76
2021/03/01 03:45:45;;;;;;;10.88;5.43;;;7.20;99.90;;;;;;4977308;28;20026;-76
2021/03/01 03:48:16;;;;;;;11.60;6.43;;;7.20;99.90;;;;;;4986183;28;20523;-76
2021/03/01 03:50:42;;;;;;;10.90;6.72;;;7.20;99.90;;;;;;4987619;28;20037;-76
2021/03/01 03:53:14;;;;;;;9.68;6.88;;;7.20;99.90;;;;;;4984117;28;20043;-76
2021/03/01 03:55:45;;;;;;;7.90;6.05;;;7.30;99.90;;;;;;4987721;28;20023;-76
2021/03/01 03:58:15;;;;;;;10.02;6.13;;;7.40;99.90;;;;;;4981002;28;20027;-76
2021/03/01 04:00:41;;;;;;;7.88;5.63;;;7.60;99.90;;;;;;4982667;28;20027;-76
2021/03/01 04:03:11;;;;;;;8.48;6.10;;;7.60;99.90;;;;;;4986292;28;20398;-75
2021/03/01 04:05:41;;;;;;;12.25;7.43;;;7.70;99.90;;;;;;4977001;28;20038;-76
2021/03/01 04:08:10;;;;;;;9.98;6.97;;;7.80;99.90;;;;;;4986905;28;20022;-75
2021/03/01 04:10:37;;;;;;;7.32;6.30;;;7.90;99.90;;;;;;4982897;28;20037;-76
2021/03/01 04:13:08;;;;;;;6.65;5.97;;;7.90;99.90;;;;;;4986260;28;20026;-76
2021/03/01 04:15:36;;;;;;;9.43;6.15;;;7.80;99.90;;;;;;4984569;28;20027;-76
2021/03/01 04:18:05;;;;;;;8.93;5.90;;;7.60;99.90;;;;;;4987302;28;20509;-75
2021/03/01 04:20:34;;;;;;;7.88;5.72;;;7.60;99.90;;;;;;4982224;28;20033;-76
2021/03/01 04:23:01;;;;;;;11.05;6.05;;;7.40;99.90;;;;;;4984870;28;20053;-75
2021/03/01 04:25:28;;;;;;;9.52;5.85;;;7.40;99.90;;;;;;4983218;28;20124;-75
2021/03/01 04:27:54;;;;;;;6.40;5.57;;;7.20;99.90;;;;;;4994698;28;20011;-76
2021/03/01 04:30:21;;;;;;;9.77;6.68;;;7.10;99.90;;;;;;5003794;28;20074;-75
2021/03/01 04:32:47;;;;;;;15.20;6.25;;;7.00;99.90;;;;;;4997267;28;20018;-75
2021/03/01 04:35:18;;;;;;;20.33;7.50;;;6.90;99.90;;;;;;5000945;28;20033;-75
2021/03/01 04:37:44;;;;;;;8.05;5.65;;;6.90;99.90;;;;;;5009380;28;20010;-75
2021/03/01 04:40:11;;;;;;;9.43;6.43;;;6.80;99.90;;;;;;5000712;28;20076;-76
2021/03/01 04:42:40;;;;;;;10.00;6.32;;;7.00;99.90;;;;;;4986057;28;20023;-75
2021/03/01 04:45:07;;;;;;;11.55;7.03;;;7.00;99.90;;;;;;4986470;28;20093;-75
2021/03/01 04:47:34;;;;;;;8.75;6.05;;;7.00;99.90;;;;;;4985484;28;20077;-75
2021/03/01 04:50:00;;;;;;;8.55;6.80;;;6.90;99.90;;;;;;4992226;28;20023;-75
2021/03/01 04:52:31;;;;;;;8.65;7.10;;;6.80;99.90;;;;;;4984556;28;20037;-76
2021/03/01 04:54:58;;;;;;;12.70;7.40;;;6.80;99.90;;;;;;4985681;28;20077;-76
2021/03/01 04:57:26;;;;;;;14.82;7.90;;;6.70;99.90;;;;;;4983169;28;20029;-76
2021/03/01 04:59:53;;;;;;;6.07;5.53;;;6.70;99.90;;;;;;4988616;28;20038;-76
2021/03/01 05:02:20;;;;;;;7.88;5.70;;;6.60;99.90;;;;;;4981263;28;20027;-76
2021/03/01 05:04:46;;;;;;;8.75;6.25;;;6.60;99.90;;;;;;4984486;28;20027;-75
2021/03/01 05:07:12;;;;;;;9.10;5.97;;;6.60;99.90;;;;;;4984311;28;20037;-76
2021/03/01 05:09:38;;;;;;;10.63;7.20;;;6.60;99.90;;;;;;4984796;28;20718;-76
2021/03/01 05:12:05;;;;;;;13.57;6.78;;;6.60;99.90;;;;;;4979063;28;20393;-75
2021/03/01 05:14:32;;;;;;;12.05;7.55;;;6.70;99.90;;;;;;4983793;28;20057;-76
2021/03/01 05:17:01;;;;;;;10.82;6.22;;;6.80;99.90;;;;;;4977608;28;20049;-76
2021/03/01 05:19:31;;;;;;;9.63;6.68;;;6.80;99.90;;;;;;4989801;28;20026;-76
2021/03/01 05:21:58;;;;;;;7.82;5.82;;;6.80;99.90;;;;;;4987073;28;20031;-75
2021/03/01 05:24:24;;;;;;;7.68;6.07;;;6.80;99.90;;;;;;4996721;28;20031;-76
2021/03/01 05:26:51;;;;;;;7.13;5.93;;;6.80;99.90;;;;;;4997621;28;20019;-75
2021/03/01 05:29:17;;;;;;;6.85;5.47;;;6.80;99.90;;;;;;5002237;28;20030;-75
2021/03/01 05:31:44;;;;;;;9.00;7.57;;;6.80;99.90;;;;;;5000734;28;20216;-75
2021/03/01 05:34:10;;;;;;;13.32;6.70;;;6.80;99.90;;;;;;5004036;28;20048;-76
2021/03/01 05:36:36;;;;;;;12.63;6.28;;;6.80;99.90;;;;;;5005188;28;20019;-75
2021/03/01 05:39:03;;;;;;;18.55;9.80;;;6.70;99.90;;;;;;4978318;28;20563;-75
2021/03/01 05:41:32;;;;;;;8.30;6.45;;;6.80;99.90;;;;;;4975057;28;20042;-76
2021/03/01 05:43:58;;;;;;;9.43;6.00;;;6.80;99.90;;;;;;4984446;28;20085;-76
2021/03/01 05:46:25;;;;;;;6.93;5.50;;;6.80;99.90;;;;;;4983321;28;20037;-76
2021/03/01 05:48:53;;;;;;;11.85;6.85;;;6.80;99.90;;;;;;4978388;28;20026;-76
2021/03/01 05:51:23;;;;;;;11.30;6.47;;;6.90;99.90;;;;;;4988275;28;20134;-76
2021/03/01 05:53:53;;;;;;;7.72;6.15;;;6.90;99.90;;;;;;4981398;28;20027;-76
2021/03/01 05:56:19;;;;;;;40.35;13.70;;;7.00;99.90;;;;;;4988999;28;20415;-76
2021/03/01 05:58:46;;;;;;;15.13;7.22;;;7.00;99.90;;;;;;4985390;28;20030;-75
2021/03/01 06:01:12;;;;;;;8.52;7.32;;;7.00;99.90;;;;;;4977388;28;20118;-76
2021/03/01 06:03:38;;;;;;;12.25;7.75;;;6.90;99.90;;;;;;4985773;28;20452;-75
2021/03/01 06:06:05;;;;;;;13.00;8.98;;;6.80;99.90;;;;;;4986835;28;20027;-76
2021/03/01 06:08:31;;;;;;;18.17;8.32;;;6.70;99.90;;;;;;5007825;28;20026;-76
2021/03/01 06:11:04;;;;;;;22.88;9.88;;;6.60;99.90;;;;;;4983894;28;20030;-75
2021/03/01 06:13:31;;;;;;;15.73;8.48;;;6.60;99.90;;;;;;4980908;28;20097;-76
2021/03/01 06:15:58;;;;;;;14.48;7.03;;;6.50;99.90;;;;;;4985736;28;20033;-75
2021/03/01 06:18:25;;;;;;;13.85;9.18;;;6.70;99.90;;;;;;4978082;28;20038;-76
2021/03/01 06:20:52;;;;;;;19.70;8.70;;;6.70;99.90;;;;;;4981478;28;20432;-76
2021/03/01 06:23:39;;;;;;;14.63;8.65;;;6.90;99.90;;;;;;4985846;28;20304;-76
2021/03/01 06:26:31;;;;;;;13.63;9.05;;;6.90;99.90;;;;;;4986994;28;20078;-76
2021/03/01 06:29:07;;;;;;;15.20;9.10;;;6.90;99.90;;;;;;4979897;28;20326;-76
2021/03/01 06:31:39;;;;;;;10.48;9.20;;;6.90;99.90;;;;;;4980678;28;20523;-76
2021/03/01 06:34:24;;;;;;;20.43;11.97;;;6.80;99.90;;;;;;4992940;28;20037;-76
2021/03/01 06:37:10;;;;;;;15.57;10.55;;;6.90;99.90;;;;;;4986901;28;20501;-75
2021/03/01 06:39:39;;;;;;;13.23;8.55;;;7.00;99.90;;;;;;4982082;28;20035;-75
2021/03/01 06:42:17;;;;;;;17.52;8.15;;;7.10;99.90;;;;;;4982039;28;20037;-75
2021/03/01 06:44:43;;;;;;;9.60;5.65;;;7.40;99.90;;;;;;4983538;28;20070;-79
2021/03/01 06:47:10;;;;;;;26.00;10.95;;;7.50;99.90;;;;;;4985920;28;20107;-76
2021/03/01 06:49:37;;;;;;;18.48;10.73;;;7.80;99.90;;;;;;4984950;28;20517;-76
2021/03/01 06:52:04;;;;;;;14.80;9.45;;;8.00;99.90;;;;;;4993587;28;20045;-76
2021/03/01 06:54:30;;;;;;;13.52;6.50;;;8.00;99.90;;;;;;4990085;28;20473;-76
2021/03/01 06:56:56;;;;;;;10.48;5.13;;;8.00;99.90;;;;;;4986007;28;20497;-76
2021/03/01 06:59:23;;;;;;;8.27;4.90;;;8.20;99.90;;;;;;4985076;28;20586;-76
2021/03/01 07:01:59;;;;;;;22.45;11.98;;;8.40;99.90;;;;;;4982287;28;20462;-76
2021/03/01 07:04:27;;;;;;;17.13;9.23;;;8.80;99.90;;;;;;4984783;28;20126;-76
2021/03/01 07:06:55;;;;;;;10.05;6.93;;;8.90;99.90;;;;;;4984620;28;20106;-77
2021/03/01 07:09:23;;;;;;;7.38;4.88;;;8.80;99.90;;;;;;4988384;28;20030;-78
2021/03/01 07:11:50;;;;;;;7.72;4.10;;;8.80;99.90;;;;;;4982742;28;20049;-77
2021/03/01 07:14:21;;;;;;;12.15;4.68;;;8.90;99.90;;;;;;4979721;28;20035;-77
2021/03/01 07:16:49;;;;;;;13.35;7.28;;;9.10;99.90;;;;;;4979684;28;20077;-77
2021/03/01 07:19:27;;;;;;;19.40;10.70;;;9.30;99.90;;;;;;4978418;28;20045;-76
2021/03/01 07:22:19;;;;;;;15.68;7.47;;;9.60;99.90;;;;;;4982666;28;20054;-76
2021/03/01 07:25:15;;;;;;;14.60;8.25;;;9.60;99.90;;;;;;4988477;28;20037;-77
2021/03/01 07:27:45;;;;;;;13.07;7.95;;;9.70;99.90;;;;;;4991319;28;20062;-77
2021/03/01 07:30:12;;;;;;;6.03;4.78;;;9.90;99.90;;;;;;4981689;28;20078;-76
2021/03/01 07:32:40;;;;;;;6.18;4.05;;;9.90;97.60;;;;;;4976535;28;20445;-76
2021/03/01 07:35:07;;;;;;;13.32;7.22;;;10.00;95.90;;;;;;4982099;28;20023;-76
2021/03/01 07:37:35;;;;;;;15.80;5.90;;;10.10;98.70;;;;;;4983184;28;20510;-77
2021/03/01 07:40:01;;;;;;;22.55;5.47;;;10.10;98.40;;;;;;4982403;28;20073;-76
2021/03/01 07:42:29;;;;;;;18.98;5.78;;;10.30;96.60;;;;;;4998278;28;20019;-76
2021/03/01 07:44:56;;;;;;;17.65;4.65;;;10.40;95.90;;;;;;4989633;28;20034;-76
2021/03/01 07:47:29;;;;;;;11.15;3.78;;;10.50;95.30;;;;;;4998980;28;20046;-76
2021/03/01 07:49:55;;;;;;;6.20;3.35;;;10.70;94.70;;;;;;4990471;28;20041;-76
2021/03/01 07:52:24;;;;;;;11.95;4.20;;;10.80;93.40;;;;;;4984001;28;20023;-78
2021/03/01 07:54:57;;;;;;;7.70;4.47;;;10.90;91.90;;;;;;4982909;28;20043;-76
2021/03/01 07:57:27;;;;;;;6.43;3.88;;;11.00;92.80;;;;;;4992023;28;20027;-75
2021/03/01 08:00:17;;;;;;;6.72;5.07;;;11.10;91.10;;;;;;4992469;28;20022;-76
2021/03/01 08:02:46;;;;;;;13.13;4.70;;;11.20;92.30;;;;;;4988706;28;20097;-76
2021/03/01 08:05:29;;;;;;;10.13;4.15;;;11.20;92.50;;;;;;4977640;28;20070;-76
2021/03/01 08:07:56;;;;;;;18.38;4.35;;;11.30;90.70;;;;;;4994341;28;20105;-75
2021/03/01 08:10:27;;;;;;;12.15;3.53;;;11.40;90.30;;;;;;4997834;28;20074;-75
2021/03/01 08:13:07;;;;;;;6.85;3.67;;;11.60;88.70;;;;;;4986742;28;20019;-77
2021/03/01 08:15:37;;;;;;;15.32;4.13;;;11.70;85.20;;;;;;4989355;28;20034;-76
2021/03/01 08:18:04;;;;;;;4.47;3.10;;;11.80;85.80;;;;;;4986751;28;20034;-77
2021/03/01 08:20:32;;;;;;;10.10;4.22;;;11.90;85.80;;;;;;4986467;28;20026;-76
2021/03/01 08:23:04;;;;;;;13.88;4.45;;;12.00;85.60;;;;;;4984913;28;20686;-76
2021/03/01 08:25:46;;;;;;;9.35;3.95;;;12.10;85.20;;;;;;4983732;28;20029;-76
2021/03/01 08:28:24;;;;;;;;;;;12.20;80.60;;;;;;4983779;28;20034;-77
2021/03/01 08:30:50;;;;;;;11.65;6.45;;;12.40;78.20;;;;;;4988958;28;19918;-77
2021/03/01 08:33:16;;;;;;;6.00;3.28;;;12.40;77.70;;;;;;4982946;28;20433;-76
2021/03/01 08:35:43;;;;;;;13.55;4.75;;;12.60;78.20;;;;;;4991057;28;20057;-78
2021/03/01 08:38:12;;;;;;;14.43;3.10;;;12.60;80.10;;;;;;4992957;28;20041;-76
2021/03/01 08:40:55;;;;;;;6.13;4.95;;;12.70;76.00;;;;;;4994584;28;20034;-77
2021/03/01 08:43:31;;;;;;;5.30;2.88;;;12.90;73.60;;;;;;4993446;28;20054;-76
2021/03/01 08:45:58;;;;;;;3.65;1.60;;;13.20;70.20;;;;;;5005171;28;20026;-76
2021/03/01 08:48:24;;;;;;;5.10;2.72;;;13.30;67.50;;;;;;4991987;28;20019;-76
2021/03/01 08:50:52;;;;;;;4.05;2.67;;;13.40;69.00;;;;;;4995185;28;20031;-76
2021/03/01 08:53:22;;;;;;;6.60;2.05;;;13.60;66.80;;;;;;4993589;28;20031;-77
2021/03/01 08:55:49;;;;;;;3.80;2.65;;;13.70;64.90;;;;;;4985507;28;20019;-77
2021/03/01 08:58:16;;;;;;;3.17;2.28;;;13.70;66.20;;;;;;4996772;28;20022;-77
2021/03/01 09:00:58;;;;;;;10.07;2.63;;;13.90;66.00;;;;;;4999010;28;20026;-77
2021/03/01 09:03:44;;;;;;;5.13;2.47;;;13.90;65.70;;;;;;4989921;28;20031;-77
2021/03/01 09:06:12;;;;;;;4.13;3.15;;;13.90;66.20;;;;;;4997339;28;20038;-76
2021/03/01 09:08:42;;;;;;;3.75;2.55;;;13.90;66.00;;;;;;4988070;28;20362;-77
2021/03/01 09:11:53;;;;;;;5.20;2.50;;;13.90;65.80;;;;;;4987824;28;20159;-77
2021/03/01 09:14:25;;;;;;;4.80;2.05;;;13.90;65.60;;;;;;4977314;28;20118;-77
2021/03/01 09:16:54;;;;;;;3.30;2.45;;;14.00;65.30;;;;;;4977208;28;20034;-77
2021/03/01 09:19:21;;;;;;;6.05;2.80;;;14.00;65.90;;;;;;4995802;28;20057;-77
2021/03/01 09:21:54;;;;;;;5.60;2.65;;;14.00;65.60;;;;;;4975667;28;20417;-77
2021/03/01 09:24:20;;;;;;;10.77;2.22;;;14.00;65.60;;;;;;4989242;28;20065;-77
2021/03/01 09:26:47;;;;;;;4.07;2.50;;;14.10;65.30;;;;;;4992811;28;20022;-77
2021/03/01 09:29:13;;;;;;;4.68;2.25;;;14.10;65.00;;;;;;4988933;28;20054;-77
2021/03/01 09:31:40;;;;;;;3.00;2.70;;;14.10;64.70;;;;;;4983690;28;20026;-78
2021/03/01 09:34:07;;;;;;;3.40;2.45;;;14.20;64.40;;;;;;4983343;28;20019;-79
2021/03/01 09:36:34;;;;;;;4.28;2.15;;;14.30;63.70;;;;;;4979044;28;20037;-77
2021/03/01 09:39:02;;;;;;;2.78;2.10;;;14.40;63.60;;;;;;4980272;28;20058;-78
2021/03/01 09:41:38;;;;;;;6.15;2.33;;;14.40;63.70;;;;;;4977644;28;20082;-77
2021/03/01 09:44:08;;;;;;;3.60;2.67;;;14.50;63.00;;;;;;4984999;28;20034;-77
2021/03/01 09:46:35;;;;;;;2.67;1.90;;;14.60;63.20;;;;;;4988644;28;20042;-77
2021/03/01 09:49:07;;;;;;;4.72;1.92;;;14.60;63.90;;;;;;4985058;28;20022;-77
2021/03/01 09:51:36;;;;;;;4.72;2.58;;;14.70;62.30;;;;;;4979482;28;20019;-76
2021/03/01 09:54:07;;;;;;;3.75;2.40;;;14.80;61.40;;;;;;4990747;28;20050;-77
2021/03/01 09:56:45;;;;;;;2.95;2.35;;;14.90;62.60;;;;;;4977585;28;20124;-77
2021/03/01 09:59:12;;;;;;;2.13;1.77;;;14.90;62.40;;;;;;4981864;28;20111;-77
2021/03/01 10:01:39;;;;;;;2.95;1.52;;;15.00;61.70;;;;;;4981608;28;20035;-77
2021/03/01 10:04:05;;;;;;;3.75;1.80;;;15.10;62.20;;;;;;4982412;28;20481;-77
2021/03/01 10:06:42;;;;;;;5.13;1.75;;;15.20;61.70;;;;;;4987569;28;20026;-77
2021/03/01 10:09:09;;;;;;;3.50;2.03;;;15.20;62.40;;;;;;4983023;28;20019;-79
2021/03/01 10:11:35;;;;;;;2.67;2.20;;;15.30;61.70;;;;;;4978936;28;20022;-77
2021/03/01 10:14:09;;;;;;;3.65;2.30;;;15.40;61.60;;;;;;4994406;28;20572;-77
2021/03/01 10:16:44;;;;;;;5.07;3.35;;;15.50;62.40;;;;;;4979729;28;20054;-77
2021/03/01 10:19:23;;;;;;;2.30;2.10;;;15.50;64.30;;;;;;4979531;28;20026;-77
2021/03/01 10:21:50;;;;;;;6.07;1.98;;;15.60;63.70;;;;;;4984981;28;20022;-77
2021/03/01 10:24:18;;;;;;;2.67;2.35;;;15.70;63.70;;;;;;4979321;28;20042;-78
2021/03/01 10:26:56;;;;;;;6.97;2.78;;;15.70;63.70;;;;;;4978761;28;20034;-77
2021/03/01 10:29:33;;;;;;;3.05;2.08;;;15.80;65.00;;;;;;4976788;28;20514;-77
2021/03/01 10:32:00;;;;;;;4.55;3.08;;;15.80;65.10;;;;;;4981267;28;20019;-77
2021/03/01 10:34:36;;;;;;;2.92;1.90;;;15.90;65.00;;;;;;4977688;28;20027;-78
2021/03/01 10:37:03;;;;;;;1.95;1.70;;;16.00;65.60;;;;;;4973916;28;20089;-77
2021/03/01 10:39:43;;;;;;;6.15;2.80;;;15.90;65.20;;;;;;4976426;28;20019;-78
2021/03/01 10:42:12;;;;;;;2.78;1.98;;;15.80;66.20;;;;;;4983742;28;20018;-77
2021/03/01 10:44:44;;;;;;;2.53;2.10;;;15.90;66.50;;;;;;4978508;28;20055;-77
2021/03/01 10:47:32;;;;;;;7.15;2.95;;;16.00;68.20;;;;;;4988486;28;20058;-77
2021/03/01 10:50:00;;;;;;;2.00;1.65;;;16.00;68.80;;;;;;4980330;28;20027;-77
2021/03/01 10:52:27;;;;;;;5.28;2.10;;;16.00;69.60;;;;;;4984804;28;20496;-77
2021/03/01 10:54:59;;;;;;;2.65;2.08;;;16.00;69.80;;;;;;4976422;28;20081;-77
2021/03/01 10:57:26;;;;;;;5.25;2.63;;;16.00;69.90;;;;;;4976903;28;20031;-78
2021/03/01 10:59:54;;;;;;;4.25;1.90;;;16.10;70.10;;;;;;4982757;28;20069;-78
2021/03/01 11:02:20;;;;;;;2.30;2.10;;;16.10;70.20;;;;;;4991444;28;20026;-79
2021/03/01 11:04:47;;;;;;;2.63;1.67;;;16.20;71.30;;;;;;4983074;28;20031;-77
2021/03/01 11:07:14;;;;;;;2.35;2.13;;;16.20;70.10;;;;;;4981744;28;20042;-77
2021/03/01 11:09:40;;;;;;;2.85;1.65;;;16.20;72.00;;;;;;4975830;28;20081;-78
2021/03/01 11:12:06;;;;;;;2.55;2.08;;;16.30;71.50;;;;;;4974520;28;20031;-77
2021/03/01 11:14:33;;;;;;;2.13;1.60;;;16.40;71.80;;;;;;4977712;28;20026;-78
2021/03/01 11:16:59;;;;;;;1.55;1.45;;;16.40;72.90;;;;;;4985696;28;21815;-78
2021/03/01 11:19:25;;;;;;;2.88;1.98;;;16.50;71.70;;;;;;4973477;28;20082;-77
2021/03/01 11:21:52;;;;;;;2.95;1.50;;;16.60;72.00;;;;;;4988520;28;20031;-77
2021/03/01 11:24:21;;;;;;;3.30;1.85;;;16.50;72.70;;;;;;4989838;28;20053;-78
2021/03/01 11:27:43;;;;;;;1.65;1.52;;;16.50;73.00;;;;;;4980570;28;20026;-77
2021/03/01 11:30:30;;;;;;;5.55;1.83;;;16.60;72.80;;;;;;4988921;28;20054;-77
2021/03/01 11:36:20;;;;;;;2.42;2.08;;;16.50;72.60;;;;;;4985788;28;20704;-77
2021/03/01 11:38:46;;;;;;;4.70;2.45;;;16.50;73.10;;;;;;4981809;28;20128;-78
2021/03/01 11:41:15;;;;;;;2.33;2.13;;;16.50;71.80;;;;;;5001405;28;20085;-77
2021/03/01 11:43:43;;;;;;;3.53;2.53;;;16.50;72.70;;;;;;5006559;28;20053;-79
2021/03/01 11:46:10;;;;;;;3.63;2.13;;;16.70;72.20;;;;;;4988877;28;20465;-78
2021/03/01 11:48:38;;;;;;;1.77;1.67;;;16.70;72.90;;;;;;4994194;28;20097;-78
2021/03/01 11:51:05;;;;;;;2.17;1.98;;;16.80;72.20;;;;;;4987569;28;20030;-77
2021/03/01 11:53:30;;;;;;;2.17;2.00;;;16.90;72.10;;;;;;4983607;28;20035;-78
2021/03/01 11:55:56;;;;;;;4.60;2.38;;;16.90;71.90;;;;;;4980554;28;20466;-78
2021/03/01 11:58:22;;;;;;;2.08;1.88;;;17.00;71.40;;;;;;4995930;28;20047;-78
2021/03/01 12:00:48;;;;;;;5.15;2.38;;;17.00;69.90;;;;;;4986466;28;20030;-78
2021/03/01 12:03:14;;;;;;;2.25;2.05;;;16.90;70.70;;;;;;4981054;28;20035;-78
2021/03/01 12:05:41;;;;;;;2.42;2.15;;;17.10;70.80;;;;;;4985196;28;20401;-78
2021/03/01 12:08:08;;;;;;;4.60;2.75;;;17.20;71.40;;;;;;4985385;28;20598;-78
2021/03/01 12:11:10;;;;;;;5.25;2.83;;;17.20;70.60;;;;;;4984687;28;20058;-78
2021/03/01 12:13:36;;;;;;;2.07;1.77;;;17.20;70.50;;;;;;4970128;28;20027;-78
2021/03/01 12:16:05;;;;;;;2.38;2.17;;;17.20;70.70;;;;;;4978822;28;20296;-78
2021/03/01 12:18:31;;;;;;;5.40;1.73;;;17.40;70.40;;;;;;4989861;28;20084;-77
2021/03/01 12:20:56;;;;;;;1.48;1.38;;;17.40;69.00;;;;;;4983884;28;20022;-78
2021/03/01 12:23:46;;;;;;;3.83;2.38;;;17.20;70.20;;;;;;4983965;28;20392;-78
2021/03/01 12:26:12;;;;;;;6.07;2.13;;;17.30;70.20;;;;;;4927163;29;20101;-77
2021/03/01 12:28:37;;;;;;;2.05;1.85;;;17.30;70.10;;;;;;4982089;28;20050;-78
2021/03/01 12:31:03;;;;;;;3.72;2.40;;;17.40;70.20;;;;;;4974544;28;20486;-81
2021/03/01 12:33:29;;;;;;;2.17;1.95;;;17.40;69.40;;;;;;4982711;28;20022;-77
2021/03/01 12:35:55;;;;;;;2.00;1.80;;;17.40;69.50;;;;;;4984271;28;20234;-77
2021/03/01 12:38:21;;;;;;;2.28;2.10;;;17.20;68.50;;;;;;4987085;28;20088;-79
2021/03/01 12:40:46;;;;;;;3.83;1.80;;;17.10;69.10;;;;;;4986296;28;20068;-77
2021/03/01 12:43:16;;;;;;;3.92;1.55;;;17.00;69.70;;;;;;4986572;28;20027;-77
2021/03/01 12:45:42;;;;;;;1.77;1.65;;;17.10;69.80;;;;;;4988269;28;20034;-78
2021/03/01 12:48:08;;;;;;;1.85;1.38;;;17.00;69.10;;;;;;4980567;28;20101;-79
2021/03/01 12:50:33;;;;;;;2.08;1.60;;;16.90;68.10;;;;;;4985047;28;20050;-79
2021/03/01 12:52:59;;;;;;;2.53;1.95;;;16.90;68.60;;;;;;4976981;28;20014;-78
2021/03/01 12:55:25;;;;;;;2.15;1.50;;;16.90;68.10;;;;;;4985750;28;20020;-78
2021/03/01 12:57:51;;;;;;;3.03;2.10;;;16.90;68.20;;;;;;4984160;28;20039;-78
2021/03/01 13:00:18;;;;;;;4.15;1.92;;;17.00;67.80;;;;;;4988827;28;20452;-78
2021/03/01 13:02:44;;;;;;;3.53;2.20;;;17.00;68.50;;;;;;4976321;28;20121;-78